createdAt,value
2023-04-23T00:03:21.200Z,15.85
2023-04-23T00:08:23.342Z,15.93
2023-04-23T00:13:25.821Z,16.05
2023-04-23T00:18:27.867Z,16.12
2023-04-23T00:23:29.735Z,16.12
2023-04-23T00:28:31.545Z,16.14
2023-04-23T00:33:33.358Z,16.15
2023-04-23T00:38:35.173Z,16.15
2023-04-23T00:43:37.836Z,16.14
2023-04-23T00:48:40.518Z,16.09
2023-04-23T00:53:42.418Z,16.06
2023-04-23T00:58:45.200Z,16.02
2023-04-23T01:03:53.881Z,16.03
2023-04-23T01:08:59.740Z,16.08
2023-04-23T01:14:03.212Z,16.15
2023-04-23T01:19:07.927Z,16.24
2023-04-23T01:24:10.655Z,16.29
2023-04-23T01:29:14.185Z,16.31
2023-04-23T01:34:16.057Z,16.33
2023-04-23T01:39:20.396Z,16.34
2023-04-23T01:44:31.166Z,16.31
2023-04-23T01:49:33.168Z,16.25
2023-04-23T01:54:34.989Z,16.14
2023-04-23T01:59:37.940Z,16.08
2023-04-23T02:04:44.587Z,16.01
2023-04-23T02:09:46.668Z,15.96
2023-04-23T02:14:51.800Z,15.91
2023-04-23T02:19:55.878Z,15.84
2023-04-23T02:25:00.063Z,15.78
2023-04-23T02:30:02.355Z,15.74
2023-04-23T02:35:06.654Z,15.69
2023-04-23T02:40:09.239Z,15.65
2023-04-23T02:45:12.094Z,15.61
2023-04-23T02:50:13.898Z,15.59
2023-04-23T02:55:16.136Z,15.59
2023-04-23T03:00:18.227Z,15.64
2023-04-23T03:05:20.230Z,15.71
2023-04-23T03:10:22.198Z,15.78
2023-04-23T03:15:24.369Z,15.83
2023-04-23T03:20:26.853Z,15.90
2023-04-23T03:25:28.884Z,15.85
2023-04-23T03:30:31.171Z,15.76
2023-04-23T03:35:33.200Z,15.74
2023-04-23T03:40:37.162Z,15.71
2023-04-23T03:45:41.662Z,15.70
2023-04-23T03:50:43.756Z,15.63
2023-04-23T03:56:09.324Z,15.58
2023-04-23T04:01:22.265Z,15.42
2023-04-23T04:06:26.454Z,15.34
2023-04-23T04:11:30.558Z,15.34
2023-04-23T04:16:32.447Z,15.35
2023-04-23T04:21:34.396Z,15.36
2023-04-23T04:26:36.457Z,15.37
2023-04-23T04:31:38.454Z,15.39
2023-04-23T04:36:41.360Z,15.39
2023-04-23T04:41:43.615Z,15.42
2023-04-23T04:46:46.161Z,15.42
2023-04-23T04:51:48.296Z,15.45
2023-04-23T04:56:50.213Z,15.51
2023-04-23T05:01:52.088Z,15.58
2023-04-23T05:06:53.934Z,15.67
2023-04-23T05:11:56.973Z,15.73
2023-04-23T05:16:58.802Z,15.79
2023-04-23T05:22:02.920Z,15.85
2023-04-23T05:27:04.932Z,15.90
2023-04-23T05:32:07.267Z,15.95
2023-04-23T05:37:09.307Z,16.04
2023-04-23T05:42:11.350Z,16.10
2023-04-23T05:47:14.366Z,16.17
2023-04-23T05:52:16.428Z,16.21
2023-04-23T05:57:19.326Z,16.28
2023-04-23T06:02:24.045Z,16.34
2023-04-23T06:07:26.762Z,16.38
2023-04-23T06:12:29.634Z,16.41
2023-04-23T06:17:31.644Z,16.48
2023-04-23T06:22:33.750Z,16.58
2023-04-23T06:27:35.704Z,16.67
2023-04-23T06:32:44.945Z,16.74
2023-04-23T06:37:46.706Z,16.80
2023-04-23T06:42:51.490Z,16.86
2023-04-23T06:48:14.764Z,16.84
2023-04-23T06:53:16.638Z,16.87
2023-04-23T06:58:18.541Z,16.86
2023-04-23T07:03:20.785Z,16.86
2023-04-23T07:08:22.733Z,16.86
2023-04-23T07:13:24.838Z,16.87
2023-04-23T07:18:26.683Z,16.82
2023-04-23T07:23:28.551Z,16.82
2023-04-23T07:28:30.711Z,16.80
2023-04-23T07:33:32.929Z,16.83
2023-04-23T07:38:35.919Z,16.83
2023-04-23T07:43:38.551Z,16.76
2023-04-23T07:48:40.396Z,16.73
2023-04-23T07:53:47.127Z,16.74
2023-04-23T07:58:49.055Z,16.87
2023-04-23T08:03:51.566Z,17.04
2023-04-23T08:08:57.353Z,17.20
2023-04-23T08:13:59.456Z,17.37
2023-04-23T08:19:06.410Z,17.49
2023-04-23T08:24:10.690Z,17.56
2023-04-23T08:29:12.693Z,17.72
2023-04-23T08:34:15.615Z,17.86
2023-04-23T08:39:21.638Z,17.91
2023-04-23T08:44:26.067Z,17.80
2023-04-23T08:49:33.674Z,17.68
2023-04-23T08:54:42.150Z,17.59
2023-04-23T08:59:46.124Z,17.56
2023-04-23T09:04:50.884Z,17.55
2023-04-23T09:09:53.955Z,17.53
2023-04-23T09:14:56.709Z,17.48
2023-04-23T09:19:59.361Z,17.48
2023-04-23T09:25:02.188Z,17.56
2023-04-23T09:30:11.152Z,17.59
2023-04-23T09:35:15.533Z,17.59
2023-04-23T09:40:28.154Z,17.61
2023-04-23T09:45:31.199Z,17.83
2023-04-23T09:50:34.086Z,17.83
2023-04-23T09:55:41.046Z,17.80
2023-04-23T10:00:44.676Z,17.73
2023-04-23T10:06:00.525Z,17.79
2023-04-23T10:11:20.273Z,17.92
2023-04-23T10:16:28.553Z,17.95
2023-04-23T10:21:50.405Z,17.97
2023-04-23T10:27:02.110Z,17.91
2023-04-23T10:32:08.866Z,17.81
2023-04-23T10:37:12.205Z,17.69
2023-04-23T10:42:14.725Z,17.64
2023-04-23T10:47:17.514Z,17.68
2023-04-23T10:52:22.829Z,17.82
2023-04-23T10:57:26.345Z,18.05
2023-04-23T11:02:44.407Z,18.27
2023-04-23T11:08:19.264Z,18.26
2023-04-23T11:13:29.547Z,18.15
2023-04-23T11:18:31.565Z,18.12
2023-04-23T11:23:33.575Z,18.11
2023-04-23T11:28:39.616Z,18.23
2023-04-23T11:33:41.568Z,18.31
2023-04-23T11:38:43.581Z,18.36
2023-04-23T11:43:46.814Z,18.41
2023-04-23T11:48:49.604Z,18.47
2023-04-23T11:53:51.510Z,18.55
2023-04-23T11:59:06.123Z,18.57
2023-04-23T12:04:22.985Z,18.48
2023-04-23T12:09:27.724Z,18.36
2023-04-23T12:14:31.226Z,18.33
2023-04-23T12:19:33.483Z,18.28
2023-04-23T12:24:51.786Z,18.32
2023-04-23T12:30:01.098Z,18.30
2023-04-23T12:35:06.180Z,18.42
2023-04-23T12:40:08.883Z,18.63
2023-04-23T12:45:14.937Z,18.70
2023-04-23T12:50:16.991Z,18.75
2023-04-23T12:55:19.107Z,18.80
2023-04-23T13:00:21.292Z,18.90
2023-04-23T13:05:24.199Z,19.03
2023-04-23T13:10:26.096Z,19.09
2023-04-23T13:15:28.312Z,19.34
2023-04-23T13:20:30.764Z,19.53
2023-04-23T13:25:32.789Z,19.47
2023-04-23T13:30:34.828Z,19.31
2023-04-23T13:35:37.945Z,19.22
2023-04-23T13:40:39.936Z,19.26
2023-04-23T13:45:41.883Z,19.38
2023-04-23T13:50:44.829Z,19.50
2023-04-23T13:55:46.780Z,19.55
2023-04-23T14:00:49.157Z,19.46
2023-04-23T14:05:51.451Z,19.30
2023-04-23T14:10:53.386Z,19.19
2023-04-23T14:15:55.646Z,19.09
2023-04-23T14:20:57.681Z,19.02
2023-04-23T14:26:05.161Z,18.98
2023-04-23T14:31:07.718Z,18.93
2023-04-23T14:36:09.846Z,18.96
2023-04-23T14:41:11.981Z,18.98
2023-04-23T14:46:15.461Z,19.01
2023-04-23T14:51:17.810Z,18.99
2023-04-23T14:56:19.982Z,19.03
2023-04-23T15:01:22.103Z,18.98
2023-04-23T15:06:24.136Z,18.94
2023-04-23T15:11:26.605Z,18.91
2023-04-23T15:21:39.326Z,18.84
2023-04-23T15:26:41.418Z,18.77
2023-04-23T15:31:43.480Z,18.72
2023-04-23T15:36:48.171Z,18.64
2023-04-23T15:41:52.310Z,18.64
2023-04-23T15:46:54.215Z,18.87
2023-04-23T15:51:56.073Z,19.08
2023-04-23T15:56:57.999Z,19.19
2023-04-23T16:02:00.001Z,19.18
2023-04-23T16:07:02.000Z,19.18
2023-04-23T16:12:04.257Z,19.19
2023-04-23T16:17:06.185Z,19.19
2023-04-23T16:22:08.085Z,19.14
2023-04-23T16:27:11.050Z,19.06
2023-04-23T16:32:14.083Z,18.97
2023-04-23T16:37:19.000Z,18.86
2023-04-23T16:42:21.999Z,18.77
2023-04-23T16:47:23.881Z,18.64
2023-04-23T16:52:26.488Z,18.52
2023-04-23T16:57:28.324Z,18.35
2023-04-23T17:02:30.330Z,18.22
2023-04-23T17:07:32.884Z,18.09
2023-04-23T17:12:34.695Z,18.06
2023-04-23T17:17:36.703Z,18.05
2023-04-23T17:22:38.476Z,18.00
2023-04-23T17:27:40.391Z,17.94
2023-04-23T17:32:45.457Z,17.79
2023-04-23T17:37:47.653Z,17.70
2023-04-23T17:42:49.650Z,17.57
2023-04-23T17:47:51.557Z,17.41
2023-04-23T17:52:53.717Z,17.29
2023-04-23T17:57:56.130Z,17.18
2023-04-23T18:02:58.460Z,17.08
2023-04-23T18:08:00.878Z,17.01
2023-04-23T18:13:03.471Z,16.95
2023-04-23T18:18:05.395Z,16.91
2023-04-23T18:23:08.199Z,16.82
2023-04-23T18:28:11.344Z,16.73
2023-04-23T18:33:36.115Z,16.64
2023-04-23T18:38:45.328Z,16.48
2023-04-23T18:43:47.258Z,16.46
2023-04-23T18:49:01.333Z,16.45
2023-04-23T18:54:03.362Z,16.45
2023-04-23T18:59:05.242Z,16.43
2023-04-23T19:04:08.231Z,16.39
2023-04-23T19:09:10.531Z,16.33
2023-04-23T19:14:12.469Z,16.30
2023-04-23T19:19:14.721Z,16.23
2023-04-23T19:24:16.604Z,16.22
2023-04-23T19:29:23.852Z,16.14
2023-04-23T19:34:27.319Z,16.05
2023-04-23T19:39:29.618Z,15.98
2023-04-23T19:44:31.366Z,15.87
2023-04-23T19:49:33.145Z,15.79
2023-04-23T19:54:34.944Z,15.72
2023-04-23T19:59:37.463Z,15.65
2023-04-23T20:04:41.405Z,15.60
2023-04-23T20:09:43.609Z,15.48
2023-04-23T20:14:45.804Z,15.39
2023-04-23T20:19:47.784Z,15.34
2023-04-23T20:24:49.589Z,15.32
2023-04-23T20:29:51.610Z,15.27
2023-04-23T20:34:53.556Z,15.24
2023-04-23T20:39:58.666Z,15.25
2023-04-23T20:45:00.648Z,15.24
2023-04-23T20:50:02.472Z,15.22
2023-04-23T20:55:04.526Z,15.12
2023-04-23T21:00:11.718Z,15.03
2023-04-23T21:05:13.613Z,14.90
2023-04-23T21:10:20.092Z,14.85
2023-04-23T21:15:21.936Z,14.80
2023-04-23T21:20:23.685Z,14.78
2023-04-23T21:25:26.877Z,14.80
2023-04-23T21:30:51.293Z,14.84
2023-04-23T21:35:53.805Z,14.89
2023-04-23T21:40:55.770Z,14.93
2023-04-23T21:46:00.071Z,14.93
2023-04-23T21:51:02.362Z,14.97
2023-04-23T21:56:04.361Z,15.02
2023-04-23T22:01:06.335Z,15.08
2023-04-23T22:06:09.843Z,15.10
2023-04-23T22:11:13.246Z,15.10
2023-04-23T22:16:27.502Z,15.09
2023-04-23T22:21:30.318Z,15.04
2023-04-23T22:26:34.068Z,14.99
2023-04-23T22:31:38.616Z,14.97
2023-04-23T22:36:43.384Z,14.98
2023-04-23T22:41:45.689Z,14.95
2023-04-23T22:46:47.524Z,14.94
2023-04-23T22:51:52.355Z,14.90
2023-04-23T22:56:54.277Z,14.85
2023-04-23T23:01:56.175Z,14.78
2023-04-23T23:06:58.055Z,14.76
2023-04-23T23:12:02.516Z,14.78
2023-04-23T23:17:06.091Z,14.79
2023-04-23T23:22:07.976Z,14.75
2023-04-23T23:27:09.951Z,14.72
2023-04-23T23:32:11.871Z,14.70
2023-04-23T23:37:13.679Z,14.68
2023-04-23T23:42:15.526Z,14.64
2023-04-23T23:47:18.355Z,14.63
2023-04-23T23:52:20.202Z,14.61
2023-04-23T23:57:22.201Z,14.62
